AEE57M LGAV-LMML
Flight info
| Callsign | AEE57M |
|---|---|
| Flight time | 1h 24m |
| Altitude | 31000 |
| Route | DDM UY115 KAM/N0449F340 DCT ROTAS DCT AGARI/N0457F300 M978 GZO |
| Aircraft | A320/M-SDE3FGHIRWY/LB1 |
Departure
| Time | 2026-05-04 19:33 |
|---|---|
| Airport | Athens Eleftherios Venizelos International Airport (LGAV) |
Arrival
| Time | 2026-05-04 20:58 |
|---|---|
| Airport | Malta International Airport (LMML) |
| Time | Latitude | Longitude | Altitude | Speed | Heading |
|---|---|---|---|---|---|
| 2026-05-04 19:10 | 37.93607 | 23.94836 | 301 ft | 0 kts | 307° |
| 2026-05-04 19:26 | 37.93593 | 23.94859 | 302 ft | 4 kts | 306° |
| 2026-05-04 19:26 | 37.93581 | 23.94881 | 303 ft | 4 kts | 303° |
| 2026-05-04 19:26 | 37.93569 | 23.94911 | 301 ft | 4 kts | 276° |
| 2026-05-04 19:26 | 37.93574 | 23.94935 | 301 ft | 3 kts | 217° |
| 2026-05-04 19:27 | 37.93589 | 23.94949 | 302 ft | 0 kts | 217° |
| 2026-05-04 19:29 | 37.93588 | 23.94948 | 302 ft | 1 kts | 217° |
| 2026-05-04 19:29 | 37.93577 | 23.94937 | 301 ft | 3 kts | 217° |
| 2026-05-04 19:29 | 37.93554 | 23.94915 | 302 ft | 5 kts | 217° |
| 2026-05-04 19:30 | 37.93518 | 23.94881 | 303 ft | 7 kts | 217° |
| 2026-05-04 19:30 | 37.93468 | 23.94845 | 301 ft | 9 kts | 181° |
| 2026-05-04 19:30 | 37.93423 | 23.94909 | 300 ft | 11 kts | 123° |
| 2026-05-04 19:30 | 37.93367 | 23.94992 | 299 ft | 14 kts | 163° |
| 2026-05-04 19:31 | 37.93278 | 23.94929 | 300 ft | 16 kts | 216° |
| 2026-05-04 19:31 | 37.93198 | 23.94854 | 300 ft | 10 kts | 217° |
| 2026-05-04 19:31 | 37.93135 | 23.94877 | 300 ft | 12 kts | 120° |
| 2026-05-04 19:31 | 37.93160 | 23.94997 | 295 ft | 17 kts | 71° |
| 2026-05-04 19:32 | 37.93170 | 23.95101 | 295 ft | 10 kts | 54° |
| 2026-05-04 19:32 | 37.93186 | 23.95118 | 292 ft | 0 kts | 35° |
| 2026-05-04 19:32 | 37.93220 | 23.95150 | 295 ft | 18 kts | 37° |
| 2026-05-04 19:32 | 37.93529 | 23.95444 | 283 ft | 91 kts | 36° |
| 2026-05-04 19:33 | 37.94191 | 23.96072 | 285 ft | 143 kts | 37° |
| 2026-05-04 19:33 | 37.95052 | 23.96909 | 644 ft | 160 kts | 37° |
| 2026-05-04 19:33 | 37.95942 | 23.97785 | 1297 ft | 165 kts | 37° |
| 2026-05-04 19:33 | 37.96859 | 23.98698 | 1921 ft | 170 kts | 36° |
| 2026-05-04 19:34 | 37.97790 | 23.99611 | 2543 ft | 169 kts | 35° |
| 2026-05-04 19:34 | 37.98723 | 24.00495 | 3173 ft | 167 kts | 34° |
| 2026-05-04 19:34 | 37.99668 | 24.01447 | 3495 ft | 188 kts | 46° |
| 2026-05-04 19:34 | 38.00271 | 24.03038 | 3734 ft | 215 kts | 71° |
| 2026-05-04 19:35 | 38.00577 | 24.04991 | 4036 ft | 240 kts | 85° |
| 2026-05-04 19:35 | 38.00159 | 24.07144 | 4520 ft | 268 kts | 119° |
| 2026-05-04 19:35 | 37.98752 | 24.08745 | 5310 ft | 282 kts | 153° |
| 2026-05-04 19:35 | 37.96798 | 24.09141 | 6160 ft | 293 kts | 187° |
| 2026-05-04 19:36 | 37.94913 | 24.08159 | 6922 ft | 298 kts | 221° |
| 2026-05-04 19:36 | 37.93550 | 24.06199 | 7731 ft | 297 kts | 240° |
| 2026-05-04 19:36 | 37.92545 | 24.03925 | 8645 ft | 295 kts | 248° |
| 2026-05-04 19:36 | 37.91661 | 24.01591 | 9587 ft | 294 kts | 249° |
| 2026-05-04 19:37 | 37.90759 | 23.99255 | 10406 ft | 299 kts | 248° |
| 2026-05-04 19:37 | 37.89758 | 23.96828 | 10637 ft | 323 kts | 245° |
| 2026-05-04 19:37 | 37.88614 | 23.94256 | 10810 ft | 346 kts | 243° |
| 2026-05-04 19:37 | 37.87352 | 23.91597 | 11296 ft | 357 kts | 242° |
| 2026-05-04 19:38 | 37.86024 | 23.88913 | 11907 ft | 362 kts | 240° |
| 2026-05-04 19:38 | 37.84664 | 23.86208 | 12537 ft | 367 kts | 240° |
| 2026-05-04 19:38 | 37.83286 | 23.83471 | 13175 ft | 371 kts | 240° |
| 2026-05-04 19:38 | 37.81892 | 23.80695 | 13821 ft | 376 kts | 240° |
| 2026-05-04 19:39 | 37.80485 | 23.77882 | 14406 ft | 380 kts | 240° |
| 2026-05-04 19:39 | 37.79071 | 23.75046 | 14991 ft | 383 kts | 240° |
| 2026-05-04 19:39 | 37.77649 | 23.72188 | 15599 ft | 384 kts | 239° |
| 2026-05-04 19:39 | 37.76225 | 23.69326 | 16240 ft | 385 kts | 239° |
| 2026-05-04 19:40 | 37.74799 | 23.66455 | 16837 ft | 387 kts | 239° |
| 2026-05-04 19:40 | 37.73380 | 23.63600 | 17428 ft | 389 kts | 239° |
| 2026-05-04 19:40 | 37.71935 | 23.60698 | 18029 ft | 392 kts | 239° |
| 2026-05-04 19:40 | 37.70480 | 23.57775 | 18602 ft | 394 kts | 239° |
| 2026-05-04 19:41 | 37.69014 | 23.54834 | 19114 ft | 397 kts | 239° |
| 2026-05-04 19:41 | 37.67534 | 23.51872 | 19627 ft | 400 kts | 239° |
| 2026-05-04 19:41 | 37.66046 | 23.48896 | 20142 ft | 403 kts | 239° |
| 2026-05-04 19:41 | 37.64543 | 23.45895 | 20650 ft | 406 kts | 239° |
| 2026-05-04 19:42 | 37.63029 | 23.42873 | 21133 ft | 409 kts | 239° |
| 2026-05-04 19:42 | 37.61504 | 23.39832 | 21612 ft | 411 kts | 241° |
| 2026-05-04 19:42 | 37.59972 | 23.36777 | 22083 ft | 414 kts | 241° |
| 2026-05-04 19:42 | 37.58423 | 23.33693 | 22536 ft | 417 kts | 241° |
| 2026-05-04 19:43 | 37.56866 | 23.30592 | 22983 ft | 420 kts | 242° |
| 2026-05-04 19:43 | 37.55301 | 23.27477 | 23422 ft | 423 kts | 242° |
| 2026-05-04 19:43 | 37.53721 | 23.24338 | 23842 ft | 426 kts | 242° |
| 2026-05-04 19:43 | 37.52125 | 23.21178 | 24241 ft | 428 kts | 242° |
| 2026-05-04 19:44 | 37.50522 | 23.18012 | 24624 ft | 430 kts | 242° |
| 2026-05-04 19:44 | 37.48906 | 23.14825 | 25013 ft | 432 kts | 242° |
| 2026-05-04 19:44 | 37.47289 | 23.11633 | 25399 ft | 434 kts | 242° |
| 2026-05-04 19:44 | 37.45665 | 23.08420 | 25705 ft | 435 kts | 244° |
| 2026-05-04 19:45 | 37.44036 | 23.05201 | 26089 ft | 436 kts | 244° |
| 2026-05-04 19:45 | 37.42403 | 23.01980 | 26472 ft | 438 kts | 244° |
| 2026-05-04 19:45 | 37.40763 | 22.98746 | 26850 ft | 439 kts | 244° |
| 2026-05-04 19:45 | 37.39116 | 22.95500 | 27230 ft | 442 kts | 244° |
| 2026-05-04 19:46 | 37.37457 | 22.92238 | 27583 ft | 444 kts | 244° |
| 2026-05-04 19:46 | 37.35812 | 22.89011 | 27947 ft | 446 kts | 244° |
| 2026-05-04 19:46 | 37.34134 | 22.85720 | 28303 ft | 448 kts | 244° |
| 2026-05-04 19:46 | 37.32444 | 22.82412 | 28658 ft | 450 kts | 244° |
| 2026-05-04 19:47 | 37.30750 | 22.79103 | 29025 ft | 451 kts | 245° |
| 2026-05-04 19:47 | 37.29052 | 22.75791 | 29536 ft | 449 kts | 245° |
| 2026-05-04 19:47 | 37.27367 | 22.72510 | 30120 ft | 447 kts | 245° |
| 2026-05-04 19:47 | 37.25683 | 22.69235 | 30614 ft | 445 kts | 245° |
| 2026-05-04 19:48 | 37.24012 | 22.65980 | 31050 ft | 444 kts | 245° |
| 2026-05-04 19:48 | 37.22345 | 22.62729 | 31510 ft | 442 kts | 245° |
| 2026-05-04 19:48 | 37.20683 | 22.59480 | 31962 ft | 441 kts | 245° |
| 2026-05-04 19:48 | 37.19026 | 22.56244 | 32426 ft | 440 kts | 245° |
| 2026-05-04 19:49 | 37.17371 | 22.53023 | 32828 ft | 439 kts | 245° |
| 2026-05-04 19:49 | 37.15714 | 22.49807 | 33268 ft | 439 kts | 245° |
| 2026-05-04 19:49 | 37.14059 | 22.46598 | 33695 ft | 438 kts | 245° |
| 2026-05-04 19:49 | 37.12402 | 22.43402 | 34074 ft | 437 kts | 245° |
| 2026-05-04 19:50 | 37.10748 | 22.40214 | 34166 ft | 438 kts | 245° |
| 2026-05-04 19:50 | 37.07419 | 22.33780 | 34170 ft | 442 kts | 245° |
| 2026-05-04 19:51 | 37.04073 | 22.27316 | 34167 ft | 442 kts | 244° |
| 2026-05-04 19:51 | 37.00725 | 22.20871 | 34168 ft | 442 kts | 244° |
| 2026-05-04 19:52 | 36.97365 | 22.14429 | 34165 ft | 442 kts | 244° |
| 2026-05-04 19:52 | 36.94001 | 22.07981 | 34149 ft | 443 kts | 244° |
| 2026-05-04 19:53 | 36.90638 | 22.01531 | 34155 ft | 443 kts | 244° |
| 2026-05-04 19:53 | 36.87262 | 21.95078 | 34162 ft | 444 kts | 244° |
| 2026-05-04 19:54 | 36.83876 | 21.88629 | 34166 ft | 444 kts | 244° |
| 2026-05-04 19:54 | 36.80489 | 21.82182 | 34158 ft | 444 kts | 244° |
| 2026-05-04 19:55 | 36.77092 | 21.75742 | 34155 ft | 444 kts | 243° |
| 2026-05-04 19:55 | 36.73699 | 21.69312 | 34170 ft | 444 kts | 243° |
| 2026-05-04 19:56 | 36.70302 | 21.62892 | 34177 ft | 444 kts | 243° |
| 2026-05-04 19:56 | 36.66927 | 21.56520 | 34177 ft | 443 kts | 243° |
| 2026-05-04 19:57 | 36.63529 | 21.50106 | 34165 ft | 443 kts | 244° |
| 2026-05-04 19:57 | 36.60136 | 21.43717 | 34174 ft | 442 kts | 243° |
| 2026-05-04 19:58 | 36.56734 | 21.37335 | 34179 ft | 442 kts | 243° |
| 2026-05-04 19:58 | 36.53334 | 21.30967 | 34180 ft | 442 kts | 243° |
| 2026-05-04 19:59 | 36.49929 | 21.24601 | 34180 ft | 442 kts | 243° |
| 2026-05-04 19:59 | 36.46526 | 21.18252 | 34180 ft | 442 kts | 243° |
| 2026-05-04 20:00 | 36.43126 | 21.11904 | 34167 ft | 441 kts | 244° |
| 2026-05-04 20:00 | 36.39718 | 21.05563 | 34175 ft | 441 kts | 244° |
| 2026-05-04 20:01 | 36.36327 | 20.99278 | 34184 ft | 441 kts | 244° |
| 2026-05-04 20:01 | 36.32913 | 20.92955 | 34185 ft | 441 kts | 244° |
| 2026-05-04 20:02 | 36.29503 | 20.86643 | 34160 ft | 441 kts | 245° |
| 2026-05-04 20:02 | 36.26081 | 20.80328 | 34155 ft | 441 kts | 245° |
| 2026-05-04 20:03 | 36.23209 | 20.75036 | 34164 ft | 442 kts | 245° |
| 2026-05-04 20:03 | 36.19806 | 20.68759 | 34180 ft | 442 kts | 245° |
| 2026-05-04 20:04 | 36.16371 | 20.62439 | 34184 ft | 442 kts | 245° |
| 2026-05-04 20:04 | 36.12927 | 20.56128 | 34161 ft | 442 kts | 245° |
| 2026-05-04 20:05 | 36.09481 | 20.49817 | 34163 ft | 443 kts | 245° |
| 2026-05-04 20:05 | 36.06026 | 20.43506 | 34151 ft | 443 kts | 244° |
| 2026-05-04 20:06 | 36.02569 | 20.37197 | 34162 ft | 444 kts | 244° |
| 2026-05-04 20:06 | 35.99097 | 20.30877 | 34173 ft | 444 kts | 244° |
| 2026-05-04 20:07 | 35.96077 | 20.24349 | 34159 ft | 429 kts | 258° |
| 2026-05-04 20:07 | 35.94899 | 20.17338 | 34171 ft | 410 kts | 275° |
| 2026-05-04 20:08 | 35.95013 | 20.10413 | 34162 ft | 406 kts | 278° |
| 2026-05-04 20:08 | 35.95161 | 20.03450 | 34183 ft | 406 kts | 278° |
| 2026-05-04 20:09 | 35.95300 | 19.96482 | 34198 ft | 405 kts | 278° |
| 2026-05-04 20:09 | 35.95438 | 19.89534 | 34204 ft | 405 kts | 278° |
| 2026-05-04 20:10 | 35.95581 | 19.82589 | 34205 ft | 405 kts | 278° |
| 2026-05-04 20:10 | 35.95723 | 19.75641 | 34184 ft | 404 kts | 278° |
| 2026-05-04 20:11 | 35.95859 | 19.68705 | 34197 ft | 404 kts | 278° |
| 2026-05-04 20:11 | 35.95988 | 19.61824 | 34201 ft | 404 kts | 278° |
| 2026-05-04 20:12 | 35.96104 | 19.54898 | 34195 ft | 403 kts | 278° |
| 2026-05-04 20:12 | 35.96218 | 19.47978 | 34202 ft | 403 kts | 278° |
| 2026-05-04 20:13 | 35.96331 | 19.41063 | 34190 ft | 403 kts | 278° |
| 2026-05-04 20:13 | 35.96445 | 19.34154 | 34194 ft | 403 kts | 278° |
| 2026-05-04 20:14 | 35.96545 | 19.27246 | 34205 ft | 402 kts | 278° |
| 2026-05-04 20:14 | 35.96641 | 19.20342 | 34204 ft | 402 kts | 278° |
| 2026-05-04 20:15 | 35.96741 | 19.13444 | 34196 ft | 402 kts | 278° |
| 2026-05-04 20:15 | 35.96837 | 19.06547 | 34182 ft | 402 kts | 278° |
| 2026-05-04 20:16 | 35.96930 | 18.99636 | 34186 ft | 403 kts | 278° |
| 2026-05-04 20:16 | 35.97018 | 18.92717 | 34192 ft | 403 kts | 278° |
| 2026-05-04 20:17 | 35.97099 | 18.85791 | 34195 ft | 404 kts | 278° |
| 2026-05-04 20:17 | 35.97172 | 18.78861 | 34181 ft | 404 kts | 278° |
| 2026-05-04 20:18 | 35.97241 | 18.71963 | 34167 ft | 405 kts | 277° |
| 2026-05-04 20:18 | 35.97316 | 18.65009 | 34172 ft | 406 kts | 277° |
| 2026-05-04 20:19 | 35.97386 | 18.58033 | 34179 ft | 407 kts | 277° |
| 2026-05-04 20:19 | 35.97443 | 18.51044 | 34186 ft | 407 kts | 277° |
| 2026-05-04 20:20 | 35.97505 | 18.44045 | 34194 ft | 407 kts | 277° |
| 2026-05-04 20:20 | 35.97558 | 18.37056 | 34189 ft | 407 kts | 276° |
| 2026-05-04 20:21 | 35.97612 | 18.30060 | 34201 ft | 407 kts | 276° |
| 2026-05-04 20:21 | 35.97681 | 18.19596 | 34206 ft | 407 kts | 276° |
| 2026-05-04 20:22 | 35.97716 | 18.12615 | 34207 ft | 407 kts | 276° |
| 2026-05-04 20:22 | 35.97749 | 18.05630 | 34209 ft | 407 kts | 276° |
| 2026-05-04 20:23 | 35.97787 | 17.98650 | 34215 ft | 406 kts | 276° |
| 2026-05-04 20:23 | 35.97821 | 17.91671 | 34215 ft | 406 kts | 276° |
| 2026-05-04 20:24 | 35.97847 | 17.84689 | 34212 ft | 407 kts | 275° |
| 2026-05-04 20:24 | 35.97861 | 17.77707 | 34217 ft | 406 kts | 275° |
| 2026-05-04 20:25 | 35.97878 | 17.70772 | 34200 ft | 406 kts | 275° |
| 2026-05-04 20:25 | 35.97890 | 17.63809 | 34209 ft | 406 kts | 275° |
| 2026-05-04 20:26 | 35.97894 | 17.56845 | 34227 ft | 405 kts | 275° |
| 2026-05-04 20:26 | 35.97894 | 17.49883 | 34220 ft | 405 kts | 275° |
| 2026-05-04 20:27 | 35.97895 | 17.42930 | 34209 ft | 405 kts | 275° |
| 2026-05-04 20:27 | 35.97894 | 17.35980 | 34201 ft | 405 kts | 274° |
| 2026-05-04 20:28 | 35.97883 | 17.29031 | 34205 ft | 405 kts | 274° |
| 2026-05-04 20:28 | 35.97874 | 17.22087 | 34202 ft | 404 kts | 274° |
| 2026-05-04 20:29 | 35.97857 | 17.15141 | 34191 ft | 405 kts | 274° |
| 2026-05-04 20:29 | 35.97837 | 17.08236 | 34199 ft | 405 kts | 274° |
| 2026-05-04 20:30 | 35.97811 | 17.01274 | 34190 ft | 405 kts | 273° |
| 2026-05-04 20:30 | 35.97783 | 16.94317 | 34187 ft | 405 kts | 274° |
| 2026-05-04 20:31 | 35.97756 | 16.87352 | 34188 ft | 406 kts | 274° |
| 2026-05-04 20:31 | 35.97726 | 16.80381 | 34190 ft | 406 kts | 273° |
| 2026-05-04 20:32 | 35.97686 | 16.73403 | 34193 ft | 407 kts | 273° |
| 2026-05-04 20:32 | 35.97636 | 16.66415 | 34184 ft | 407 kts | 273° |
| 2026-05-04 20:33 | 35.97584 | 16.59428 | 34181 ft | 407 kts | 273° |
| 2026-05-04 20:33 | 35.97532 | 16.52431 | 34189 ft | 408 kts | 273° |
| 2026-05-04 20:34 | 35.97471 | 16.45475 | 34188 ft | 408 kts | 273° |
| 2026-05-04 20:34 | 35.97408 | 16.38467 | 34190 ft | 408 kts | 273° |
| 2026-05-04 20:35 | 35.97348 | 16.31458 | 34179 ft | 408 kts | 272° |
| 2026-05-04 20:35 | 35.97281 | 16.24444 | 34182 ft | 409 kts | 272° |
| 2026-05-04 20:36 | 35.97211 | 16.17409 | 34185 ft | 410 kts | 272° |
| 2026-05-04 20:36 | 35.97136 | 16.10385 | 33364 ft | 409 kts | 272° |
| 2026-05-04 20:37 | 35.97093 | 16.06862 | 32503 ft | 412 kts | 272° |
| 2026-05-04 20:37 | 35.97049 | 16.03305 | 31621 ft | 417 kts | 272° |
| 2026-05-04 20:37 | 35.97006 | 15.99706 | 30709 ft | 422 kts | 272° |
| 2026-05-04 20:37 | 35.96962 | 15.96070 | 29696 ft | 427 kts | 271° |
| 2026-05-04 20:38 | 35.96916 | 15.92403 | 28930 ft | 426 kts | 271° |
| 2026-05-04 20:38 | 35.96869 | 15.88757 | 28264 ft | 422 kts | 271° |
| 2026-05-04 20:38 | 35.96821 | 15.85162 | 27624 ft | 418 kts | 271° |
| 2026-05-04 20:38 | 35.96770 | 15.81594 | 27003 ft | 414 kts | 271° |
| 2026-05-04 20:39 | 35.96716 | 15.78052 | 26391 ft | 410 kts | 271° |
| 2026-05-04 20:39 | 35.96659 | 15.74558 | 25796 ft | 406 kts | 271° |
| 2026-05-04 20:39 | 35.96604 | 15.71088 | 25208 ft | 402 kts | 271° |
| 2026-05-04 20:39 | 35.96552 | 15.67650 | 24629 ft | 399 kts | 271° |
| 2026-05-04 20:40 | 35.96500 | 15.64241 | 24052 ft | 396 kts | 271° |
| 2026-05-04 20:40 | 35.96578 | 15.60868 | 23424 ft | 391 kts | 278° |
| 2026-05-04 20:40 | 35.96977 | 15.57566 | 22773 ft | 388 kts | 280° |
| 2026-05-04 20:40 | 35.97390 | 15.54290 | 22149 ft | 385 kts | 280° |
| 2026-05-04 20:41 | 35.97792 | 15.51038 | 21558 ft | 382 kts | 280° |
| 2026-05-04 20:41 | 35.98189 | 15.47801 | 20988 ft | 379 kts | 280° |
| 2026-05-04 20:41 | 35.98580 | 15.44591 | 20445 ft | 377 kts | 280° |
| 2026-05-04 20:41 | 35.98966 | 15.41407 | 19909 ft | 374 kts | 280° |
| 2026-05-04 20:42 | 35.99347 | 15.38239 | 19376 ft | 372 kts | 280° |
| 2026-05-04 20:42 | 35.99728 | 15.35085 | 18831 ft | 370 kts | 280° |
| 2026-05-04 20:42 | 36.00107 | 15.31956 | 18274 ft | 367 kts | 280° |
| 2026-05-04 20:42 | 36.00485 | 15.28851 | 17670 ft | 365 kts | 280° |
| 2026-05-04 20:43 | 36.00859 | 15.25762 | 17060 ft | 362 kts | 280° |
| 2026-05-04 20:43 | 36.01230 | 15.22694 | 16472 ft | 360 kts | 280° |
| 2026-05-04 20:43 | 36.01600 | 15.19646 | 15893 ft | 357 kts | 280° |
| 2026-05-04 20:43 | 36.01967 | 15.16620 | 15327 ft | 355 kts | 280° |
| 2026-05-04 20:44 | 36.02327 | 15.13613 | 14773 ft | 353 kts | 280° |
| 2026-05-04 20:44 | 36.02684 | 15.10616 | 14234 ft | 351 kts | 280° |
| 2026-05-04 20:44 | 36.03037 | 15.07647 | 13654 ft | 349 kts | 280° |
| 2026-05-04 20:44 | 36.03389 | 15.04697 | 13065 ft | 346 kts | 280° |
| 2026-05-04 20:45 | 36.03737 | 15.01760 | 12484 ft | 344 kts | 280° |
| 2026-05-04 20:45 | 36.04083 | 14.98843 | 11913 ft | 342 kts | 280° |
| 2026-05-04 20:45 | 36.04426 | 14.95944 | 11360 ft | 340 kts | 280° |
| 2026-05-04 20:45 | 36.04762 | 14.93102 | 10832 ft | 338 kts | 280° |
| 2026-05-04 20:46 | 36.05100 | 14.90235 | 10302 ft | 337 kts | 280° |
| 2026-05-04 20:46 | 36.05435 | 14.87383 | 9857 ft | 332 kts | 280° |
| 2026-05-04 20:46 | 36.05758 | 14.84620 | 9734 ft | 318 kts | 280° |
| 2026-05-04 20:46 | 36.06069 | 14.81959 | 9603 ft | 306 kts | 280° |
| 2026-05-04 20:47 | 36.06370 | 14.79396 | 9465 ft | 295 kts | 280° |
| 2026-05-04 20:47 | 36.06660 | 14.76931 | 9337 ft | 286 kts | 280° |
| 2026-05-04 20:47 | 36.06942 | 14.74519 | 9070 ft | 281 kts | 280° |
| 2026-05-04 20:47 | 36.07219 | 14.72134 | 8739 ft | 280 kts | 279° |
| 2026-05-04 20:48 | 36.07495 | 14.69749 | 8401 ft | 279 kts | 279° |
| 2026-05-04 20:48 | 36.07769 | 14.67384 | 8154 ft | 278 kts | 279° |
| 2026-05-04 20:48 | 36.08044 | 14.65010 | 7964 ft | 279 kts | 279° |
| 2026-05-04 20:48 | 36.08319 | 14.62638 | 7763 ft | 278 kts | 279° |
| 2026-05-04 20:49 | 36.08593 | 14.60276 | 7570 ft | 278 kts | 279° |
| 2026-05-04 20:49 | 36.08866 | 14.57915 | 7371 ft | 277 kts | 279° |
| 2026-05-04 20:49 | 36.09045 | 14.56351 | 7250 ft | 277 kts | 279° |
| 2026-05-04 20:49 | 36.09314 | 14.53993 | 7057 ft | 277 kts | 279° |
| 2026-05-04 20:50 | 36.09582 | 14.51644 | 6870 ft | 276 kts | 279° |
| 2026-05-04 20:50 | 36.09852 | 14.49295 | 6680 ft | 276 kts | 279° |
| 2026-05-04 20:50 | 36.10123 | 14.46946 | 6482 ft | 276 kts | 279° |
| 2026-05-04 20:50 | 36.10392 | 14.44613 | 6282 ft | 271 kts | 278° |
| 2026-05-04 20:51 | 36.10596 | 14.42319 | 6077 ft | 266 kts | 270° |
| 2026-05-04 20:51 | 36.10301 | 14.40096 | 5883 ft | 261 kts | 251° |
| 2026-05-04 20:51 | 36.09470 | 14.38132 | 5676 ft | 256 kts | 233° |
| 2026-05-04 20:51 | 36.08257 | 14.36541 | 5459 ft | 253 kts | 224° |
| 2026-05-04 20:52 | 36.07019 | 14.35047 | 5241 ft | 251 kts | 224° |
| 2026-05-04 20:52 | 36.05760 | 14.33520 | 5019 ft | 250 kts | 224° |
| 2026-05-04 20:52 | 36.04545 | 14.32039 | 4799 ft | 246 kts | 224° |
| 2026-05-04 20:52 | 36.03334 | 14.30564 | 4574 ft | 242 kts | 224° |
| 2026-05-04 20:53 | 36.01976 | 14.29425 | 4339 ft | 236 kts | 194° |
| 2026-05-04 20:53 | 36.00391 | 14.29539 | 4119 ft | 230 kts | 154° |
| 2026-05-04 20:53 | 35.99113 | 14.30672 | 3898 ft | 225 kts | 136° |
| 2026-05-04 20:53 | 35.98132 | 14.32131 | 3714 ft | 218 kts | 128° |
| 2026-05-04 20:54 | 35.97151 | 14.33540 | 3453 ft | 214 kts | 133° |
| 2026-05-04 20:54 | 35.96140 | 14.34833 | 3188 ft | 205 kts | 135° |
| 2026-05-04 20:54 | 35.95155 | 14.36061 | 2940 ft | 197 kts | 135° |
| 2026-05-04 20:54 | 35.94206 | 14.37242 | 2668 ft | 191 kts | 135° |
| 2026-05-04 20:55 | 35.93288 | 14.38384 | 2410 ft | 183 kts | 135° |
| 2026-05-04 20:55 | 35.92410 | 14.39476 | 2166 ft | 173 kts | 136° |
| 2026-05-04 20:55 | 35.91593 | 14.40491 | 1965 ft | 157 kts | 136° |
| 2026-05-04 20:55 | 35.90868 | 14.41393 | 1752 ft | 143 kts | 136° |
| 2026-05-04 20:56 | 35.90182 | 14.42244 | 1551 ft | 137 kts | 136° |
| 2026-05-04 20:56 | 35.89512 | 14.43064 | 1369 ft | 135 kts | 136° |
| 2026-05-04 20:56 | 35.88857 | 14.43878 | 1167 ft | 133 kts | 136° |
| 2026-05-04 20:56 | 35.88211 | 14.44689 | 972 ft | 132 kts | 135° |
| 2026-05-04 20:57 | 35.87579 | 14.45486 | 815 ft | 132 kts | 135° |
| 2026-05-04 20:57 | 35.86923 | 14.46304 | 668 ft | 133 kts | 136° |
| 2026-05-04 20:57 | 35.86269 | 14.47108 | 497 ft | 132 kts | 136° |
| 2026-05-04 20:57 | 35.85622 | 14.47903 | 307 ft | 131 kts | 136° |
| 2026-05-04 20:58 | 35.85033 | 14.48632 | 266 ft | 102 kts | 135° |
| 2026-05-04 20:58 | 35.84654 | 14.49104 | 259 ft | 47 kts | 134° |
| 2026-05-04 20:58 | 35.84509 | 14.49288 | 259 ft | 15 kts | 125° |
| 2026-05-04 20:58 | 35.84466 | 14.49412 | 259 ft | 17 kts | 110° |
| 2026-05-04 20:59 | 35.84447 | 14.49537 | 259 ft | 13 kts | 73° |
| 2026-05-04 20:59 | 35.84529 | 14.49557 | 259 ft | 15 kts | 323° |
| 2026-05-04 20:59 | 35.84615 | 14.49568 | 259 ft | 7 kts | 44° |
| 2026-05-04 20:59 | 35.84667 | 14.49574 | 259 ft | 9 kts | 345° |
| 2026-05-04 21:00 | 35.84720 | 14.49532 | 259 ft | 9 kts | 314° |
| 2026-05-04 21:00 | 35.84773 | 14.49469 | 259 ft | 11 kts | 323° |
| 2026-05-04 21:00 | 35.84834 | 14.49456 | 259 ft | 7 kts | 359° |
| 2026-05-04 21:00 | 35.84855 | 14.49456 | 259 ft | 2 kts | 359° |
| 2026-05-04 21:01 | 35.84862 | 14.49455 | 259 ft | 0 kts | 359° |